Terminal Aerodrome Forecast
Issued by NWS

Home | Current Version | Previous Version | Text Only | Print | Product List | Glossary On
Versions: 1 2 3 4 5 6 7 8 9 10 11 12 13 14 15 16 17 18
426
FTAK31 PAJN 241728
TAFAYA
TAF
PAYA 241728Z 2418/2518 00000KT P6SM BCFG BKN010 OVC025
     FM242000 22005KT P6SM SCT006 BKN035 OVC050
     FM251100 27003KT 6SM BCFG SCT004 OVC008
      AMD LTD TO CLD VIS AND WIND=

USA.gov is the U.S. government's official web portal to all federal, state and local government web resources and services.